createdAt,value
2023-11-17T00:00:01.789Z,5.95
2023-11-17T00:02:28.637Z,5.00
2023-11-17T00:04:55.332Z,5.65
2023-11-17T00:07:22.181Z,5.95
2023-11-17T00:09:49.038Z,6.13
2023-11-17T00:12:15.717Z,5.78
2023-11-17T00:14:43.429Z,5.20
2023-11-17T00:17:11.826Z,4.80
2023-11-17T00:19:38.746Z,4.65
2023-11-17T00:22:05.451Z,6.10
2023-11-17T00:24:32.403Z,6.07
2023-11-17T00:27:00.616Z,5.82
2023-11-17T00:29:27.297Z,6.00
2023-11-17T00:31:54.081Z,5.95
2023-11-17T00:34:20.796Z,5.18
2023-11-17T00:36:48.109Z,6.93
2023-11-17T00:39:18.304Z,5.95
2023-11-17T00:41:45.343Z,6.95
2023-11-17T00:44:12.903Z,6.22
2023-11-17T00:46:39.832Z,5.38
2023-11-17T00:49:06.899Z,5.68
2023-11-17T00:51:34.793Z,5.40
2023-11-17T00:54:05.152Z,6.43
2023-11-17T00:56:32.892Z,5.80
2023-11-17T00:59:00.292Z,6.10
2023-11-17T01:01:27.531Z,5.13
2023-11-17T01:03:54.234Z,6.40
2023-11-17T01:06:22.445Z,5.97
2023-11-17T01:08:49.426Z,5.47
2023-11-17T01:11:16.173Z,6.60
2023-11-17T01:13:42.908Z,5.55
2023-11-17T01:16:09.998Z,5.78
2023-11-17T01:18:36.714Z,6.00
2023-11-17T01:21:03.636Z,6.47
2023-11-17T01:23:30.384Z,5.32
2023-11-17T01:25:57.359Z,6.18
2023-11-17T01:28:24.680Z,5.55
2023-11-17T01:30:51.502Z,5.72
2023-11-17T01:33:18.280Z,7.53
2023-11-17T01:35:45.161Z,6.22
2023-11-17T01:38:14.917Z,6.07
2023-11-17T01:40:41.571Z,5.72
2023-11-17T01:43:12.578Z,5.93
2023-11-17T01:45:43.998Z,6.68
2023-11-17T01:48:11.392Z,6.38
2023-11-17T01:50:38.172Z,5.97
2023-11-17T01:53:08.242Z,6.10
2023-11-17T01:55:35.777Z,6.20
2023-11-17T01:58:02.945Z,7.28
2023-11-17T02:00:29.825Z,6.95
2023-11-17T02:02:57.071Z,7.70
2023-11-17T02:05:25.899Z,7.95
2023-11-17T02:08:31.094Z,6.55
2023-11-17T02:11:25.537Z,8.75
2023-11-17T02:13:57.257Z,7.78
2023-11-17T02:16:26.152Z,8.50
2023-11-17T02:18:56.721Z,9.18
2023-11-17T02:21:32.108Z,7.63
2023-11-17T02:24:00.708Z,7.65
2023-11-17T02:27:01.374Z,7.55
2023-11-17T02:29:29.209Z,7.72
2023-11-17T02:32:00.378Z,8.65
2023-11-17T02:34:27.546Z,8.93
2023-11-17T02:36:54.868Z,10.52
2023-11-17T02:39:27.913Z,11.88
2023-11-17T02:41:58.963Z,10.63
2023-11-17T02:44:30.789Z,10.18
2023-11-17T02:47:01.689Z,8.82
2023-11-17T02:49:52.252Z,9.80
2023-11-17T02:53:01.402Z,9.73
2023-11-17T02:55:30.537Z,9.93
2023-11-17T02:57:58.910Z,12.82
2023-11-17T03:00:26.221Z,11.93
2023-11-17T03:02:54.294Z,10.15
2023-11-17T03:05:21.141Z,8.52
2023-11-17T03:07:49.477Z,10.98
2023-11-17T03:10:16.446Z,11.13
2023-11-17T03:12:43.152Z,10.68
2023-11-17T03:15:11.002Z,11.20
2023-11-17T03:17:39.908Z,10.85
2023-11-17T03:20:15.546Z,13.05
2023-11-17T03:22:46.007Z,12.35
2023-11-17T03:25:16.790Z,10.60
2023-11-17T03:27:44.865Z,10.77
2023-11-17T03:30:12.512Z,10.73
2023-11-17T03:32:39.346Z,11.23
2023-11-17T03:35:06.413Z,10.07
2023-11-17T03:37:33.170Z,9.63
2023-11-17T03:40:00.024Z,11.57
2023-11-17T03:42:29.617Z,12.07
2023-11-17T03:47:25.819Z,13.55
2023-11-17T03:49:52.608Z,13.15
2023-11-17T03:52:23.067Z,12.05
2023-11-17T03:54:49.994Z,11.95
2023-11-17T03:57:16.705Z,11.73
2023-11-17T03:59:47.336Z,12.27
2023-11-17T04:02:14.195Z,12.02
2023-11-17T04:04:41.014Z,11.57
2023-11-17T04:07:09.578Z,12.60
2023-11-17T04:09:36.395Z,11.63
2023-11-17T04:12:04.102Z,10.95
2023-11-17T04:14:40.964Z,11.10
2023-11-17T04:17:07.971Z,12.05
2023-11-17T04:19:36.042Z,12.05
2023-11-17T04:22:02.896Z,11.15
2023-11-17T04:24:30.206Z,10.52
2023-11-17T04:26:57.920Z,11.52
2023-11-17T04:29:27.260Z,10.70
2023-11-17T04:31:57.001Z,11.38
2023-11-17T04:34:23.821Z,11.50
2023-11-17T04:36:50.694Z,10.25
2023-11-17T04:39:25.106Z,9.93
2023-11-17T04:41:52.361Z,9.75
2023-11-17T04:44:19.719Z,9.45
2023-11-17T04:46:46.521Z,10.43
2023-11-17T04:49:16.360Z,8.43
2023-11-17T04:51:49.579Z,8.88
2023-11-17T04:54:16.604Z,8.93
2023-11-17T04:56:43.446Z,8.82
2023-11-17T04:59:13.582Z,10.05
2023-11-17T05:01:41.184Z,8.68
2023-11-17T05:04:08.541Z,8.40
2023-11-17T05:06:37.356Z,8.43
2023-11-17T05:09:11.340Z,8.60
2023-11-17T05:11:38.542Z,8.20
2023-11-17T05:14:08.568Z,7.05
2023-11-17T05:16:36.081Z,7.10
2023-11-17T05:19:05.143Z,8.00
2023-11-17T05:21:33.693Z,7.47
2023-11-17T05:24:01.353Z,7.55
2023-11-17T05:26:28.070Z,7.20
2023-11-17T05:28:54.827Z,7.00
2023-11-17T05:31:21.996Z,7.78
2023-11-17T05:33:48.735Z,8.18
2023-11-17T05:36:16.069Z,8.60
2023-11-17T05:38:42.775Z,6.65
2023-11-17T05:41:10.047Z,8.43
2023-11-17T05:43:36.792Z,7.63
2023-11-17T05:46:03.955Z,6.95
2023-11-17T05:48:30.839Z,8.05
2023-11-17T05:50:58.127Z,7.85
2023-11-17T05:53:24.767Z,7.95
2023-11-17T05:55:51.908Z,7.38
2023-11-17T05:58:18.620Z,7.70
2023-11-17T06:00:45.266Z,7.50
2023-11-17T06:03:13.759Z,7.88
2023-11-17T06:05:40.671Z,6.57
2023-11-17T06:08:07.393Z,7.28
2023-11-17T06:10:34.374Z,6.53
2023-11-17T06:13:01.036Z,6.90
2023-11-17T06:15:29.095Z,7.30
2023-11-17T06:17:57.123Z,8.20
2023-11-17T06:20:25.191Z,7.13
2023-11-17T06:22:51.855Z,7.15
2023-11-17T06:25:18.616Z,7.68
2023-11-17T06:27:47.144Z,10.55
2023-11-17T06:30:15.445Z,7.15
2023-11-17T06:32:42.148Z,8.55
2023-11-17T06:35:10.127Z,7.80
2023-11-17T06:37:38.345Z,8.27
2023-11-17T06:40:08.519Z,8.25
2023-11-17T06:42:35.281Z,7.65
2023-11-17T06:45:02.364Z,7.57
2023-11-17T06:47:29.212Z,7.38
2023-11-17T06:49:56.396Z,6.90
2023-11-17T06:52:23.227Z,8.27
2023-11-17T06:54:50.783Z,7.93
2023-11-17T06:57:18.077Z,7.90
2023-11-17T06:59:44.720Z,6.75
2023-11-17T07:02:11.501Z,7.18
2023-11-17T07:04:38.241Z,6.35
2023-11-17T07:07:06.793Z,6.22
2023-11-17T07:09:37.965Z,6.68
2023-11-17T07:12:07.603Z,6.25
2023-11-17T07:17:05.513Z,5.15
2023-11-17T07:19:34.230Z,6.15
2023-11-17T07:22:02.409Z,5.30
2023-11-17T07:24:30.380Z,5.55
2023-11-17T07:26:59.693Z,4.78
2023-11-17T07:29:27.106Z,4.90
2023-11-17T07:31:55.433Z,4.82
2023-11-17T07:34:22.353Z,5.03
2023-11-17T07:36:49.764Z,4.40
2023-11-17T07:39:20.821Z,3.65
2023-11-17T07:41:48.368Z,3.78
2023-11-17T07:44:15.251Z,4.05
2023-11-17T07:46:42.067Z,3.83
2023-11-17T07:49:11.579Z,3.85
2023-11-17T07:54:05.816Z,3.15
2023-11-17T07:56:32.488Z,4.07
2023-11-17T07:59:04.629Z,3.75
2023-11-17T08:01:31.639Z,5.07
2023-11-17T08:03:58.608Z,5.22
2023-11-17T08:06:25.547Z,4.82
2023-11-17T08:08:56.559Z,4.65
2023-11-17T08:11:26.288Z,7.07
2023-11-17T08:13:52.986Z,8.65
2023-11-17T08:16:19.785Z,7.93
2023-11-17T08:18:47.315Z,8.15
2023-11-17T08:21:15.083Z,8.98
2023-11-17T08:23:44.077Z,9.95
2023-11-17T08:26:15.420Z,9.25
2023-11-17T08:28:42.394Z,10.68
2023-11-17T08:31:10.598Z,9.80
2023-11-17T08:33:37.453Z,8.27
2023-11-17T08:36:04.381Z,8.60
2023-11-17T08:38:31.082Z,9.15
2023-11-17T08:40:57.818Z,8.10
2023-11-17T08:43:28.354Z,8.90
2023-11-17T08:45:55.660Z,9.13
2023-11-17T08:48:22.325Z,9.43
2023-11-17T08:50:49.078Z,8.70
2023-11-17T08:53:17.589Z,8.75
2023-11-17T08:55:45.794Z,8.32
2023-11-17T08:58:12.719Z,7.97
2023-11-17T09:00:41.948Z,7.85
2023-11-17T09:03:08.945Z,7.82
2023-11-17T09:05:36.203Z,8.02
2023-11-17T09:08:02.893Z,7.53
2023-11-17T09:10:29.687Z,6.78
2023-11-17T09:12:56.392Z,7.00
2023-11-17T09:15:26.851Z,6.40
2023-11-17T09:17:54.955Z,7.22
2023-11-17T09:20:24.226Z,7.28
2023-11-17T09:22:52.200Z,6.18
2023-11-17T09:25:19.919Z,6.05
2023-11-17T09:27:57.981Z,5.70
2023-11-17T09:30:25.798Z,5.40
2023-11-17T09:32:58.372Z,5.63
2023-11-17T09:35:29.537Z,5.78
2023-11-17T09:38:00.607Z,5.00
2023-11-17T09:40:40.637Z,4.38
2023-11-17T09:43:17.816Z,3.90
2023-11-17T09:45:48.240Z,4.25
2023-11-17T09:48:17.303Z,3.17
2023-11-17T09:50:46.427Z,3.28
2023-11-17T09:53:14.410Z,3.78
2023-11-17T09:55:43.637Z,3.55
2023-11-17T09:58:12.505Z,4.47
2023-11-17T10:00:46.827Z,2.95
2023-11-17T10:03:15.367Z,3.72
2023-11-17T10:05:43.171Z,3.35
2023-11-17T10:08:16.460Z,3.55
2023-11-17T10:10:46.778Z,3.50
2023-11-17T10:13:15.375Z,3.58
2023-11-17T10:15:55.929Z,3.30
2023-11-17T10:18:30.438Z,4.30
2023-11-17T10:21:00.301Z,4.32
2023-11-17T10:23:27.928Z,3.72
2023-11-17T10:25:58.229Z,3.97
2023-11-17T10:28:27.577Z,5.53
2023-11-17T10:33:27.977Z,3.55
2023-11-17T10:36:11.670Z,5.15
2023-11-17T10:38:47.221Z,5.20
2023-11-17T10:41:21.719Z,4.20
2023-11-17T10:43:53.741Z,4.50
2023-11-17T10:46:27.516Z,4.20
2023-11-17T10:49:00.526Z,4.93
2023-11-17T10:51:28.820Z,5.00
2023-11-17T10:54:05.940Z,4.72
2023-11-17T10:56:36.979Z,4.50
2023-11-17T10:59:05.255Z,5.47
2023-11-17T11:01:37.068Z,5.03
2023-11-17T11:04:25.554Z,4.82
2023-11-17T11:06:56.518Z,5.03
2023-11-17T11:09:33.671Z,5.15
2023-11-17T11:12:01.077Z,5.95
2023-11-17T11:14:29.839Z,5.85
2023-11-17T11:16:56.535Z,5.70
2023-11-17T11:19:29.055Z,6.60
2023-11-17T11:22:03.310Z,5.97
2023-11-17T11:24:39.502Z,7.15
2023-11-17T11:27:08.158Z,7.13
2023-11-17T11:29:42.500Z,7.10
2023-11-17T11:32:09.957Z,6.85
2023-11-17T11:34:37.263Z,6.68
2023-11-17T11:37:05.174Z,6.10
2023-11-17T11:39:34.868Z,6.30
2023-11-17T11:42:01.732Z,6.00
2023-11-17T11:44:28.657Z,7.18
2023-11-17T11:46:57.460Z,6.72
2023-11-17T11:49:24.885Z,7.15
2023-11-17T11:52:13.064Z,7.03
2023-11-17T11:54:40.171Z,7.20
2023-11-17T11:57:28.917Z,7.35
2023-11-17T12:00:14.962Z,7.53
2023-11-17T12:03:04.769Z,7.97
2023-11-17T12:05:34.658Z,8.75
2023-11-17T12:08:03.712Z,8.45
2023-11-17T12:10:46.230Z,8.73
2023-11-17T12:13:43.042Z,9.20
2023-11-17T12:16:12.878Z,9.80
2023-11-17T12:18:47.252Z,10.57
2023-11-17T12:21:19.574Z,10.68
2023-11-17T12:23:51.261Z,12.65
2023-11-17T12:26:20.084Z,11.88
2023-11-17T12:28:47.899Z,13.53
2023-11-17T12:31:16.108Z,14.32
2023-11-17T12:33:44.092Z,13.93
2023-11-17T12:36:15.162Z,14.23
2023-11-17T12:38:43.344Z,14.90
2023-11-17T12:41:13.667Z,14.23
2023-11-17T12:43:46.572Z,14.45
2023-11-17T12:46:13.626Z,14.90
2023-11-17T12:48:40.663Z,16.33
2023-11-17T12:51:07.747Z,14.30
2023-11-17T12:53:51.194Z,15.57
2023-11-17T12:56:19.265Z,15.13
2023-11-17T12:58:45.992Z,18.27
2023-11-17T13:01:17.742Z,16.70
2023-11-17T13:04:03.636Z,18.73
2023-11-17T13:06:32.183Z,19.58
2023-11-17T13:08:59.836Z,19.33
2023-11-17T13:11:34.013Z,18.73
2023-11-17T13:14:01.613Z,19.00
2023-11-17T13:16:32.687Z,18.27
2023-11-17T13:19:02.089Z,16.88
2023-11-17T13:23:58.903Z,15.88
2023-11-17T13:26:30.457Z,15.48
2023-11-17T13:28:58.788Z,16.10
2023-11-17T13:31:26.455Z,18.33
2023-11-17T13:33:54.815Z,18.08
2023-11-17T13:36:39.803Z,16.10
2023-11-17T13:39:11.148Z,15.57
2023-11-17T13:41:38.622Z,16.23
2023-11-17T13:44:17.413Z,20.05
2023-11-17T13:46:54.997Z,21.38
2023-11-17T13:49:24.811Z,22.63
2023-11-17T13:51:58.534Z,23.67
2023-11-17T13:54:27.295Z,23.67
2023-11-17T13:56:54.973Z,23.10
2023-11-17T13:59:24.813Z,23.42
2023-11-17T14:01:57.859Z,23.98
2023-11-17T14:04:33.573Z,25.65
2023-11-17T14:07:01.459Z,24.25
2023-11-17T14:09:30.127Z,27.17
2023-11-17T14:11:58.905Z,25.52
2023-11-17T14:14:29.022Z,25.25
2023-11-17T14:16:56.086Z,25.95
2023-11-17T14:19:28.723Z,24.33
2023-11-17T14:21:55.801Z,24.20
2023-11-17T14:24:22.670Z,26.90
2023-11-17T14:26:51.053Z,25.60
2023-11-17T14:29:19.102Z,25.27
2023-11-17T14:31:46.650Z,24.75
2023-11-17T14:34:14.485Z,23.75
2023-11-17T14:36:41.378Z,25.50
2023-11-17T14:39:11.099Z,26.17
2023-11-17T14:41:38.683Z,27.02
2023-11-17T14:44:06.588Z,24.10
2023-11-17T14:46:34.715Z,25.80
2023-11-17T14:49:03.012Z,24.38
2023-11-17T14:51:29.858Z,23.83
2023-11-17T14:53:57.066Z,25.58
2023-11-17T14:56:28.509Z,24.60
2023-11-17T14:58:56.391Z,25.65
2023-11-17T15:01:27.461Z,24.92
2023-11-17T15:03:55.531Z,24.75
2023-11-17T15:06:22.331Z,24.00
2023-11-17T15:08:51.113Z,21.67
2023-11-17T15:11:24.948Z,22.63
2023-11-17T15:13:55.103Z,26.27
2023-11-17T15:16:28.358Z,25.65
2023-11-17T15:18:58.477Z,23.90
2023-11-17T15:21:26.643Z,22.85
2023-11-17T15:23:55.138Z,22.77
2023-11-17T15:26:23.297Z,24.08
2023-11-17T15:28:51.537Z,24.90
2023-11-17T15:31:25.084Z,23.35
2023-11-17T15:33:52.751Z,24.48
2023-11-17T15:36:20.019Z,22.45
2023-11-17T15:38:48.648Z,25.20
2023-11-17T15:41:17.459Z,22.08
2023-11-17T15:43:44.333Z,23.75
2023-11-17T15:46:11.712Z,22.73
2023-11-17T15:48:38.493Z,23.35
2023-11-17T15:51:06.291Z,23.65
2023-11-17T15:53:33.818Z,23.55
2023-11-17T15:56:01.512Z,24.75
2023-11-17T15:58:30.347Z,24.58
2023-11-17T16:00:57.789Z,24.37
2023-11-17T16:03:24.810Z,22.30
2023-11-17T16:05:51.904Z,24.70
2023-11-17T16:08:18.559Z,19.77
2023-11-17T16:10:45.236Z,22.35
2023-11-17T16:13:14.296Z,26.42
2023-11-17T16:15:44.039Z,23.90
2023-11-17T16:18:11.002Z,22.77
2023-11-17T16:20:37.787Z,22.65
2023-11-17T16:23:05.186Z,21.65
2023-11-17T16:25:33.458Z,22.35
2023-11-17T16:28:04.053Z,21.65
2023-11-17T16:30:30.813Z,21.83
2023-11-17T16:32:58.297Z,19.70
2023-11-17T16:35:28.653Z,19.90
2023-11-17T16:37:55.840Z,18.95
2023-11-17T16:40:24.405Z,19.60
2023-11-17T16:43:09.078Z,18.48
2023-11-17T16:45:44.220Z,19.15
2023-11-17T16:48:11.089Z,21.02
2023-11-17T16:50:48.791Z,19.00
2023-11-17T16:53:17.350Z,20.25
2023-11-17T16:55:46.296Z,20.45
2023-11-17T16:58:14.313Z,21.85
2023-11-17T17:00:45.041Z,20.83
2023-11-17T17:03:13.419Z,18.98
2023-11-17T17:05:40.878Z,21.52
2023-11-17T17:08:09.185Z,21.30
2023-11-17T17:10:36.956Z,21.30
2023-11-17T17:13:04.592Z,20.55
2023-11-17T17:15:33.889Z,21.40
2023-11-17T17:18:07.471Z,18.38
2023-11-17T17:20:39.207Z,19.40
2023-11-17T17:23:07.834Z,19.83
2023-11-17T17:25:38.499Z,21.13
2023-11-17T17:28:05.793Z,20.73
2023-11-17T17:30:33.716Z,18.35
2023-11-17T17:33:04.316Z,18.75
2023-11-17T17:35:35.635Z,20.17
2023-11-17T17:38:02.805Z,18.92
2023-11-17T17:40:29.718Z,20.13
2023-11-17T17:42:56.829Z,18.48
2023-11-17T17:45:27.783Z,17.92
2023-11-17T17:47:58.127Z,19.35
2023-11-17T17:50:27.068Z,20.23
2023-11-17T17:52:55.783Z,19.67
2023-11-17T17:55:26.651Z,18.95
2023-11-17T17:57:54.778Z,17.73
2023-11-17T18:00:23.716Z,18.27
2023-11-17T18:02:59.507Z,18.42
2023-11-17T18:05:27.599Z,18.98
2023-11-17T18:07:54.470Z,17.48
2023-11-17T18:10:21.565Z,17.58
2023-11-17T18:12:51.194Z,17.80
2023-11-17T18:15:22.422Z,16.70
2023-11-17T18:17:51.118Z,17.70
2023-11-17T18:20:20.053Z,15.50
2023-11-17T18:22:49.410Z,15.80
2023-11-17T18:25:18.352Z,16.80
2023-11-17T18:27:49.193Z,15.60
2023-11-17T18:30:18.654Z,15.27
2023-11-17T18:35:16.305Z,16.98
2023-11-17T18:37:46.573Z,23.17
2023-11-17T18:40:22.718Z,20.30
2023-11-17T18:42:50.435Z,18.73
2023-11-17T18:45:17.328Z,18.52
2023-11-17T18:47:44.202Z,19.88
2023-11-17T18:50:12.173Z,17.08
2023-11-17T18:52:43.749Z,17.10
2023-11-17T18:55:13.001Z,16.23
2023-11-17T18:57:43.969Z,15.57
2023-11-17T19:00:18.615Z,15.63
2023-11-17T19:02:46.140Z,15.40
2023-11-17T19:05:16.119Z,14.50
2023-11-17T19:07:50.226Z,14.13
2023-11-17T19:10:20.323Z,13.60
2023-11-17T19:12:48.767Z,12.55
2023-11-17T19:15:15.661Z,13.07
2023-11-17T19:17:43.171Z,12.48
2023-11-17T19:20:12.824Z,13.07
2023-11-17T19:22:40.632Z,11.40
2023-11-17T19:25:11.239Z,10.85
2023-11-17T19:27:40.972Z,11.82
2023-11-17T19:30:16.337Z,11.63
2023-11-17T19:32:49.320Z,11.30
2023-11-17T19:35:20.214Z,12.18
2023-11-17T19:37:47.805Z,11.85
2023-11-17T19:40:15.841Z,15.98
2023-11-17T19:42:43.802Z,9.63
2023-11-17T19:45:16.901Z,10.70
2023-11-17T19:47:47.109Z,9.50
2023-11-17T19:50:18.714Z,9.07
2023-11-17T19:52:56.329Z,10.93
2023-11-17T19:55:27.577Z,10.48
2023-11-17T19:57:54.884Z,9.85
2023-11-17T20:00:26.058Z,9.85
2023-11-17T20:02:53.942Z,10.50
2023-11-17T20:05:23.417Z,9.82
2023-11-17T20:10:17.734Z,8.50
2023-11-17T20:12:46.179Z,8.48
2023-11-17T20:15:18.114Z,9.20
2023-11-17T20:17:55.235Z,10.27
2023-11-17T20:20:28.294Z,10.80
2023-11-17T20:22:59.391Z,9.20
2023-11-17T20:25:26.939Z,9.38
2023-11-17T20:27:54.695Z,9.23
2023-11-17T20:30:22.937Z,8.80
2023-11-17T20:32:51.316Z,10.50
2023-11-17T20:35:19.269Z,10.53
2023-11-17T20:37:46.206Z,10.38
2023-11-17T20:40:15.785Z,9.80
2023-11-17T20:45:15.878Z,7.90
2023-11-17T20:47:44.398Z,8.15
2023-11-17T20:50:21.398Z,7.30
2023-11-17T20:52:53.450Z,8.77
2023-11-17T20:55:21.592Z,8.73
2023-11-17T20:57:50.754Z,10.10
2023-11-17T21:00:24.644Z,8.57
2023-11-17T21:02:53.836Z,7.50
2023-11-17T21:05:21.805Z,8.68
2023-11-17T21:07:49.429Z,8.55
2023-11-17T21:10:19.956Z,8.82
2023-11-17T21:12:48.580Z,9.02
2023-11-17T21:15:18.267Z,8.20
2023-11-17T21:20:15.954Z,7.72
2023-11-17T21:22:42.856Z,9.20
2023-11-17T21:25:12.218Z,7.78
2023-11-17T21:27:43.093Z,8.27
2023-11-17T21:30:16.545Z,8.20
2023-11-17T21:32:45.193Z,7.55
2023-11-17T21:35:18.592Z,8.17
2023-11-17T21:37:45.928Z,7.72
2023-11-17T21:40:16.080Z,8.23
2023-11-17T21:42:46.529Z,8.00
2023-11-17T21:45:18.671Z,7.15
2023-11-17T21:47:46.398Z,6.18
2023-11-17T21:50:13.496Z,6.20
2023-11-17T21:52:40.579Z,5.30
2023-11-17T21:55:10.779Z,7.00
2023-11-17T21:57:45.001Z,12.05
2023-11-17T22:00:13.580Z,5.72
2023-11-17T22:02:45.273Z,5.43
2023-11-17T22:05:13.411Z,5.68
2023-11-17T22:07:41.152Z,5.97
2023-11-17T22:10:13.008Z,5.68
2023-11-17T22:12:41.193Z,5.55
2023-11-17T22:15:09.614Z,4.75
2023-11-17T22:17:42.048Z,4.38
2023-11-17T22:20:18.644Z,5.13
2023-11-17T22:22:49.751Z,4.72
2023-11-17T22:25:19.766Z,3.90
2023-11-17T22:27:47.652Z,4.40
2023-11-17T22:30:18.213Z,3.95
2023-11-17T22:32:49.128Z,4.53
2023-11-17T22:35:17.077Z,4.38
2023-11-17T22:37:45.319Z,4.10
2023-11-17T22:40:13.356Z,4.03
2023-11-17T22:42:40.715Z,4.35
2023-11-17T22:45:08.352Z,4.60
2023-11-17T22:47:35.943Z,4.65
2023-11-17T22:50:05.868Z,3.50
2023-11-17T22:52:34.789Z,3.10
2023-11-17T22:55:02.403Z,3.45
2023-11-17T22:57:29.120Z,2.88
2023-11-17T22:59:55.887Z,1.73
2023-11-17T23:02:22.665Z,1.70
2023-11-17T23:04:49.786Z,1.63
2023-11-17T23:07:16.809Z,1.48
2023-11-17T23:09:43.547Z,1.70
2023-11-17T23:12:10.471Z,1.52
2023-11-17T23:14:42.064Z,1.13
2023-11-17T23:17:16.158Z,1.27
2023-11-17T23:19:43.933Z,1.30
2023-11-17T23:22:14.826Z,1.60
2023-11-17T23:24:42.499Z,1.02
2023-11-17T23:27:09.946Z,1.75
2023-11-17T23:29:39.735Z,2.17
2023-11-17T23:32:08.988Z,1.85
2023-11-17T23:34:35.655Z,2.05
2023-11-17T23:37:04.749Z,1.80
2023-11-17T23:39:31.421Z,1.35
2023-11-17T23:41:58.521Z,1.55
2023-11-17T23:44:25.856Z,2.25
2023-11-17T23:46:53.789Z,2.30
2023-11-17T23:49:20.774Z,2.42
2023-11-17T23:51:47.453Z,3.65
2023-11-17T23:54:15.952Z,2.45
2023-11-17T23:56:42.607Z,2.22
2023-11-17T23:59:09.301Z,1.95
